createdAt,value
2023-02-01T00:02:01.063Z,28.63
2023-02-01T00:04:25.012Z,24.20
2023-02-01T00:06:49.338Z,21.27
2023-02-01T00:09:12.978Z,40.97
2023-02-01T00:11:36.828Z,18.10
2023-02-01T00:14:01.894Z,31.17
2023-02-01T00:16:28.540Z,30.50
2023-02-01T00:18:58.046Z,31.07
2023-02-01T00:21:22.951Z,22.87
2023-02-01T00:23:46.698Z,22.97
2023-02-01T00:26:16.862Z,27.70
2023-02-01T00:28:40.505Z,19.27
2023-02-01T00:31:07.210Z,28.13
2023-02-01T00:33:31.412Z,28.43
2023-02-01T00:36:00.041Z,20.40
2023-02-01T00:38:23.648Z,30.43
2023-02-01T00:40:48.203Z,15.23
2023-02-01T00:43:11.835Z,17.70
2023-02-01T00:45:35.449Z,19.73
2023-02-01T00:48:00.505Z,23.77
2023-02-01T00:50:24.204Z,20.37
2023-02-01T00:52:49.028Z,15.00
2023-02-01T00:55:12.650Z,18.33
2023-02-01T00:57:36.286Z,13.03
2023-02-01T01:00:00.233Z,19.33
2023-02-01T01:02:23.915Z,18.63
2023-02-01T01:04:48.954Z,18.03
2023-02-01T01:07:12.724Z,18.47
2023-02-01T01:09:37.512Z,8.60
2023-02-01T01:12:03.545Z,17.43
2023-02-01T01:14:28.458Z,16.67
2023-02-01T01:16:52.073Z,14.87
2023-02-01T01:19:15.772Z,15.43
2023-02-01T01:21:41.069Z,21.90
2023-02-01T01:24:04.874Z,12.43
2023-02-01T01:26:30.773Z,21.13
2023-02-01T01:28:56.421Z,21.10
2023-02-01T01:31:23.272Z,19.43
2023-02-01T01:33:50.239Z,23.27
2023-02-01T01:36:14.742Z,15.87
2023-02-01T01:38:40.412Z,19.77
2023-02-01T01:41:04.106Z,16.47
2023-02-01T01:43:27.833Z,17.57
2023-02-01T01:45:53.003Z,15.37
2023-02-01T01:48:22.376Z,24.80
2023-02-01T01:50:52.198Z,23.47
2023-02-01T01:53:20.577Z,20.43
2023-02-01T01:55:48.157Z,21.93
2023-02-01T01:58:17.992Z,21.33
2023-02-01T02:00:42.288Z,25.80
2023-02-01T02:03:16.210Z,22.77
2023-02-01T02:05:40.679Z,19.63
2023-02-01T02:08:05.755Z,24.83
2023-02-01T02:10:44.309Z,17.73
2023-02-01T02:13:09.517Z,14.93
2023-02-01T02:15:33.769Z,23.90
2023-02-01T02:18:03.827Z,32.93
2023-02-01T02:21:12.614Z,20.90
2023-02-01T02:24:20.019Z,25.07
2023-02-01T02:27:04.066Z,19.00
2023-02-01T02:30:19.484Z,20.63
2023-02-01T02:33:38.381Z,25.80
2023-02-01T02:36:09.937Z,24.43
2023-02-01T02:38:42.365Z,24.50
2023-02-01T02:41:36.811Z,20.13
2023-02-01T02:44:20.103Z,11.77
2023-02-01T02:47:08.409Z,20.40
2023-02-01T02:49:42.220Z,22.07
2023-02-01T02:52:44.213Z,18.83
2023-02-01T02:55:11.653Z,16.67
2023-02-01T02:57:57.350Z,28.40
2023-02-01T03:00:42.605Z,18.73
2023-02-01T03:03:24.427Z,17.37
2023-02-01T03:05:52.651Z,22.83
2023-02-01T03:08:19.294Z,29.23
2023-02-01T03:10:55.936Z,30.77
2023-02-01T03:13:32.154Z,18.57
2023-02-01T03:16:03.684Z,24.87
2023-02-01T03:18:35.113Z,25.93
2023-02-01T03:21:04.557Z,22.03
2023-02-01T03:23:34.900Z,26.67
2023-02-01T03:26:02.161Z,28.47
2023-02-01T03:28:30.311Z,22.07
2023-02-01T03:30:54.881Z,20.40
2023-02-01T03:33:24.456Z,26.17
2023-02-01T03:36:01.625Z,29.77
2023-02-01T03:38:31.031Z,18.97
2023-02-01T03:41:00.005Z,24.80
2023-02-01T03:43:25.862Z,23.77
2023-02-01T03:45:55.423Z,33.30
2023-02-01T03:48:21.708Z,20.60
2023-02-01T03:50:50.853Z,26.50
2023-02-01T03:53:20.413Z,26.20
2023-02-01T03:55:44.723Z,22.23
2023-02-01T03:58:12.835Z,28.60
2023-02-01T04:00:36.831Z,19.53
2023-02-01T04:03:01.098Z,22.40
2023-02-01T04:05:25.454Z,29.83
2023-02-01T04:07:56.123Z,13.57
2023-02-01T04:10:21.706Z,27.07
2023-02-01T04:12:45.605Z,22.50
2023-02-01T04:15:10.743Z,26.47
2023-02-01T04:17:34.348Z,24.53
2023-02-01T04:19:58.057Z,32.03
2023-02-01T04:22:21.665Z,33.60
2023-02-01T04:24:45.389Z,27.43
2023-02-01T04:27:10.479Z,26.63
2023-02-01T04:29:34.124Z,29.80
2023-02-01T04:31:57.785Z,25.60
2023-02-01T04:34:23.495Z,29.97
2023-02-01T04:36:47.491Z,28.43
2023-02-01T04:39:11.697Z,22.27
2023-02-01T04:41:35.405Z,25.80
2023-02-01T04:44:00.634Z,23.63
2023-02-01T04:46:24.333Z,11.90
2023-02-01T04:48:48.093Z,24.00
2023-02-01T04:51:12.905Z,26.23
2023-02-01T04:53:36.682Z,30.80
2023-02-01T04:56:00.344Z,21.30
2023-02-01T04:58:24.330Z,25.97
2023-02-01T05:00:50.556Z,23.70
2023-02-01T05:03:14.260Z,26.30
2023-02-01T05:05:37.991Z,25.50
2023-02-01T05:08:01.976Z,27.47
2023-02-01T05:10:25.694Z,22.00
2023-02-01T05:13:06.966Z,31.57
2023-02-01T05:15:30.793Z,27.73
2023-02-01T05:17:55.879Z,28.63
2023-02-01T05:20:19.748Z,33.63
2023-02-01T05:22:44.334Z,31.63
2023-02-01T05:25:09.016Z,31.50
2023-02-01T05:27:32.999Z,25.93
2023-02-01T05:29:56.680Z,27.00
2023-02-01T05:32:22.664Z,27.13
2023-02-01T05:34:48.297Z,20.67
2023-02-01T05:37:11.934Z,25.23
2023-02-01T05:39:36.214Z,23.77
2023-02-01T05:41:59.859Z,21.33
2023-02-01T05:44:23.532Z,26.83
2023-02-01T05:46:49.800Z,22.37
2023-02-01T05:49:13.883Z,29.60
2023-02-01T05:51:38.903Z,22.63
2023-02-01T05:54:02.738Z,20.77
2023-02-01T05:56:26.368Z,23.83
2023-02-01T05:58:50.074Z,24.37
2023-02-01T06:01:13.660Z,30.90
2023-02-01T06:03:37.658Z,30.97
2023-02-01T06:06:02.118Z,28.67
2023-02-01T06:08:27.652Z,32.73
2023-02-01T06:10:51.528Z,19.40
2023-02-01T06:13:15.188Z,23.63
2023-02-01T06:15:39.551Z,27.20
2023-02-01T06:18:03.223Z,26.60
2023-02-01T06:20:27.015Z,29.57
2023-02-01T06:22:50.905Z,22.70
2023-02-01T06:25:17.743Z,27.90
2023-02-01T06:27:41.503Z,23.80
2023-02-01T06:30:06.578Z,28.67
2023-02-01T06:32:31.051Z,27.10
2023-02-01T06:34:54.698Z,31.30
2023-02-01T06:37:18.337Z,27.33
2023-02-01T06:39:41.957Z,27.40
2023-02-01T06:42:07.152Z,27.57
2023-02-01T06:44:30.862Z,23.20
2023-02-01T06:46:55.968Z,29.03
2023-02-01T06:49:20.863Z,25.03
2023-02-01T06:51:44.562Z,21.27
2023-02-01T06:54:08.216Z,22.67
2023-02-01T06:56:32.996Z,29.90
2023-02-01T06:58:58.015Z,24.33
2023-02-01T07:01:22.131Z,17.53
2023-02-01T07:03:49.510Z,21.30
2023-02-01T07:06:13.214Z,15.97
2023-02-01T07:08:39.425Z,30.43
2023-02-01T07:11:05.118Z,24.57
2023-02-01T07:13:28.739Z,27.63
2023-02-01T07:15:53.841Z,22.90
2023-02-01T07:18:17.542Z,22.20
2023-02-01T07:20:41.181Z,31.07
2023-02-01T07:23:04.843Z,25.23
2023-02-01T07:25:28.582Z,21.23
2023-02-01T07:27:52.252Z,20.73
2023-02-01T07:30:16.022Z,22.17
2023-02-01T07:32:41.131Z,22.67
2023-02-01T07:35:05.017Z,25.50
2023-02-01T07:37:28.615Z,26.27
2023-02-01T07:39:52.358Z,16.90
2023-02-01T07:42:15.914Z,23.53
2023-02-01T07:44:39.540Z,14.63
2023-02-01T07:47:03.179Z,18.30
2023-02-01T07:49:28.250Z,26.03
2023-02-01T07:51:51.976Z,23.33
2023-02-01T07:54:15.620Z,17.97
2023-02-01T07:56:39.304Z,19.83
2023-02-01T07:59:03.316Z,23.10
2023-02-01T08:01:28.194Z,16.97
2023-02-01T08:03:54.136Z,22.07
2023-02-01T08:06:20.594Z,16.70
2023-02-01T08:08:46.172Z,20.47
2023-02-01T08:11:10.666Z,19.97
2023-02-01T08:13:35.510Z,17.40
2023-02-01T08:16:01.135Z,16.97
2023-02-01T08:18:24.959Z,13.60
2023-02-01T08:20:48.708Z,26.30
2023-02-01T08:23:14.187Z,14.83
2023-02-01T08:25:38.818Z,13.57
2023-02-01T08:28:02.499Z,15.90
2023-02-01T08:30:26.220Z,7.23
2023-02-01T08:32:50.097Z,15.10
2023-02-01T08:35:13.690Z,13.67
2023-02-01T08:37:37.628Z,9.73
2023-02-01T08:40:02.677Z,21.37
2023-02-01T08:42:43.761Z,13.23
2023-02-01T08:45:09.870Z,11.77
2023-02-01T08:47:33.696Z,7.80
2023-02-01T08:49:57.366Z,12.10
2023-02-01T08:52:21.065Z,11.97
2023-02-01T08:54:44.764Z,13.77
2023-02-01T08:57:10.499Z,11.87
2023-02-01T08:59:34.189Z,10.70
2023-02-01T09:01:58.051Z,12.53
2023-02-01T09:04:21.695Z,10.90
2023-02-01T09:06:45.264Z,9.57
2023-02-01T09:09:09.619Z,18.63
2023-02-01T09:11:33.402Z,9.87
2023-02-01T09:13:58.904Z,11.57
2023-02-01T09:16:22.916Z,8.00
2023-02-01T09:18:56.163Z,6.17
2023-02-01T09:21:30.786Z,10.00
2023-02-01T09:23:54.882Z,9.67
2023-02-01T09:26:19.842Z,5.30
2023-02-01T09:28:46.511Z,12.47
2023-02-01T09:31:11.639Z,5.57
2023-02-01T09:33:35.293Z,8.13
2023-02-01T09:35:59.850Z,10.03
2023-02-01T09:38:23.475Z,5.63
2023-02-01T09:40:49.574Z,2.43
2023-02-01T09:43:26.004Z,7.10
2023-02-01T09:45:59.103Z,6.07
2023-02-01T09:48:31.673Z,4.27
2023-02-01T09:51:00.274Z,3.77
2023-02-01T09:53:30.512Z,3.40
2023-02-01T09:55:58.201Z,4.77
2023-02-01T09:58:29.797Z,2.83
2023-02-01T10:00:56.327Z,8.40
2023-02-01T10:03:20.354Z,5.33
2023-02-01T10:06:23.943Z,6.90
2023-02-01T10:09:10.507Z,6.73
2023-02-01T10:11:51.751Z,4.43
2023-02-01T10:14:32.206Z,4.93
2023-02-01T10:17:04.470Z,4.07
2023-02-01T10:19:43.477Z,7.97
2023-02-01T10:22:12.115Z,9.67
2023-02-01T10:24:48.732Z,5.80
2023-02-01T10:27:19.920Z,8.77
2023-02-01T10:29:47.018Z,6.67
2023-02-01T10:32:17.823Z,7.43
2023-02-01T10:34:42.381Z,7.10
2023-02-01T10:37:22.684Z,7.87
2023-02-01T10:39:47.604Z,9.27
2023-02-01T10:42:11.675Z,9.67
2023-02-01T10:44:45.384Z,6.17
2023-02-01T10:47:11.864Z,9.40
2023-02-01T10:49:43.124Z,9.53
2023-02-01T10:52:18.691Z,10.13
2023-02-01T10:54:43.119Z,7.40
2023-02-01T10:57:11.036Z,7.63
2023-02-01T10:59:37.390Z,10.57
2023-02-01T11:02:03.669Z,10.33
2023-02-01T11:04:28.857Z,6.17
2023-02-01T11:07:08.579Z,7.87
2023-02-01T11:09:34.213Z,6.97
2023-02-01T11:12:01.071Z,9.27
2023-02-01T11:14:36.363Z,11.07
2023-02-01T11:17:02.493Z,10.80
2023-02-01T11:19:26.257Z,9.17
2023-02-01T11:21:52.755Z,5.00
2023-02-01T11:24:25.561Z,20.73
2023-02-01T11:26:50.923Z,13.33
2023-02-01T11:29:19.494Z,10.27
2023-02-01T11:31:44.100Z,16.40
2023-02-01T11:34:11.496Z,12.53
2023-02-01T11:36:38.486Z,10.70
2023-02-01T11:39:23.606Z,7.87
2023-02-01T11:42:03.808Z,6.80
2023-02-01T11:44:35.477Z,18.20
2023-02-01T11:47:20.384Z,14.03
2023-02-01T11:49:44.226Z,13.23
2023-02-01T11:52:19.988Z,12.75
2023-02-01T11:55:03.913Z,14.30
2023-02-01T11:57:47.745Z,16.23
2023-02-01T12:00:53.076Z,6.43
2023-02-01T12:04:07.427Z,8.73
2023-02-01T12:06:44.241Z,13.00
2023-02-01T12:09:48.393Z,11.87
2023-02-01T12:12:21.858Z,11.50
2023-02-01T12:15:07.101Z,6.60
2023-02-01T12:17:57.899Z,11.57
2023-02-01T12:20:43.588Z,10.70
2023-02-01T12:23:23.448Z,9.83
2023-02-01T12:26:05.811Z,9.33
2023-02-01T12:29:17.826Z,12.27
2023-02-01T12:32:01.461Z,13.83
2023-02-01T12:34:57.029Z,8.17
2023-02-01T12:37:35.123Z,11.00
2023-02-01T12:40:30.999Z,9.10
2023-02-01T12:43:02.770Z,10.40
2023-02-01T12:45:34.179Z,14.27
2023-02-01T12:48:05.051Z,7.30
2023-02-01T12:50:34.907Z,10.73
2023-02-01T12:53:09.439Z,14.50
2023-02-01T12:55:39.055Z,8.50
2023-02-01T12:58:15.299Z,11.57
2023-02-01T13:00:42.956Z,13.33
2023-02-01T13:03:16.314Z,6.50
2023-02-01T13:05:51.092Z,7.73
2023-02-01T13:08:20.337Z,3.43
2023-02-01T13:10:49.145Z,3.67
2023-02-01T13:13:21.561Z,2.77
2023-02-01T13:15:50.761Z,4.43
2023-02-01T13:18:21.065Z,3.30
2023-02-01T13:20:52.941Z,8.83
2023-02-01T13:23:27.501Z,11.13
2023-02-01T13:25:53.626Z,12.53
2023-02-01T13:28:22.435Z,10.73
2023-02-01T13:31:45.913Z,11.97
2023-02-01T13:35:17.077Z,15.57
2023-02-01T13:38:12.072Z,13.17
2023-02-01T13:40:45.355Z,11.50
2023-02-01T13:43:14.947Z,9.33
2023-02-01T13:45:46.132Z,13.13
2023-02-01T13:48:22.094Z,14.13
2023-02-01T13:50:55.531Z,18.50
2023-02-01T13:53:25.738Z,19.03
2023-02-01T13:55:58.111Z,12.00
2023-02-01T13:58:24.615Z,13.87
2023-02-01T14:00:50.075Z,9.73
2023-02-01T14:03:23.209Z,12.03
2023-02-01T14:06:41.959Z,17.53
2023-02-01T14:09:20.666Z,11.87
2023-02-01T14:11:47.394Z,15.40
2023-02-01T14:14:48.102Z,12.93
2023-02-01T14:17:39.379Z,12.90
2023-02-01T14:20:46.880Z,16.13
2023-02-01T14:23:19.104Z,13.37
2023-02-01T14:25:43.509Z,11.27
2023-02-01T14:28:15.269Z,13.00
2023-02-01T14:30:39.057Z,16.43
2023-02-01T14:33:21.036Z,15.50
2023-02-01T14:35:44.791Z,14.70
2023-02-01T14:38:12.351Z,9.10
2023-02-01T14:40:37.606Z,15.27
2023-02-01T14:43:01.191Z,13.07
2023-02-01T14:45:52.996Z,19.13
2023-02-01T14:48:47.056Z,14.17
2023-02-01T14:51:14.100Z,16.40
2023-02-01T14:53:38.626Z,18.53
2023-02-01T14:56:10.695Z,16.83
2023-02-01T14:58:45.163Z,15.17
2023-02-01T15:01:21.015Z,17.67
2023-02-01T15:03:53.716Z,17.63
2023-02-01T15:06:39.424Z,17.77
2023-02-01T15:09:07.035Z,14.57
2023-02-01T15:11:32.704Z,15.80
2023-02-01T15:13:58.146Z,16.10
2023-02-01T15:16:23.193Z,9.63
2023-02-01T15:18:47.037Z,10.63
2023-02-01T15:21:27.902Z,5.70
2023-02-01T15:24:13.305Z,7.20
2023-02-01T15:26:38.418Z,8.23
2023-02-01T15:29:02.239Z,9.77
2023-02-01T15:31:37.970Z,3.70
2023-02-01T15:34:01.760Z,5.63
2023-02-01T15:36:28.529Z,3.43
2023-02-01T15:39:26.783Z,4.20
2023-02-01T15:41:53.942Z,5.40
2023-02-01T15:44:24.587Z,5.07
2023-02-01T15:46:51.563Z,4.47
2023-02-01T15:49:25.364Z,1.40
2023-02-01T15:51:50.359Z,8.47
2023-02-01T15:54:20.974Z,2.03
2023-02-01T15:56:49.867Z,9.30
2023-02-01T15:59:19.461Z,6.10
2023-02-01T16:01:43.470Z,3.10
2023-02-01T16:04:20.188Z,1.47
2023-02-01T16:06:51.623Z,3.60
2023-02-01T16:09:17.619Z,2.67
2023-02-01T16:11:56.555Z,5.43
2023-02-01T16:14:20.224Z,3.07
2023-02-01T16:16:43.971Z,1.63
2023-02-01T16:19:07.620Z,1.33
2023-02-01T16:21:31.284Z,3.37
2023-02-01T16:23:55.555Z,1.37
2023-02-01T16:26:19.619Z,1.07
2023-02-01T16:28:44.744Z,0.93
2023-02-01T16:31:17.999Z,3.97
2023-02-01T16:33:41.701Z,6.20
2023-02-01T16:36:06.785Z,1.30
2023-02-01T16:38:30.688Z,0.97
2023-02-01T16:40:54.319Z,4.33
2023-02-01T16:43:20.734Z,1.20
2023-02-01T16:45:48.877Z,0.80
2023-02-01T16:48:21.265Z,1.47
2023-02-01T16:50:52.434Z,1.07
2023-02-01T16:53:18.943Z,1.33
2023-02-01T16:55:44.480Z,1.90
2023-02-01T16:58:08.389Z,1.10
2023-02-01T17:00:37.653Z,1.97
2023-02-01T17:03:02.773Z,1.10
2023-02-01T17:05:26.790Z,1.30
2023-02-01T17:07:50.949Z,4.67
2023-02-01T17:10:33.481Z,2.83
2023-02-01T17:12:58.651Z,3.20
2023-02-01T17:15:22.505Z,1.87
2023-02-01T17:17:46.609Z,3.70
2023-02-01T17:20:22.758Z,3.00
2023-02-01T17:22:46.445Z,5.17
2023-02-01T17:25:17.166Z,4.23
2023-02-01T17:27:42.042Z,3.40
2023-02-01T17:30:07.100Z,3.03
2023-02-01T17:32:30.783Z,4.50
2023-02-01T17:34:54.696Z,8.57
2023-02-01T17:37:26.928Z,5.70
2023-02-01T17:39:56.126Z,7.77
2023-02-01T17:42:19.692Z,9.73
2023-02-01T17:44:43.307Z,6.80
2023-02-01T17:47:06.913Z,9.10
2023-02-01T17:49:30.626Z,4.27
2023-02-01T17:51:54.307Z,4.53
2023-02-01T17:54:20.169Z,5.77
2023-02-01T17:56:43.865Z,7.27
2023-02-01T17:59:07.715Z,6.63
2023-02-01T18:01:31.657Z,7.50
2023-02-01T18:03:55.348Z,8.87
2023-02-01T18:06:21.297Z,7.47
2023-02-01T18:08:45.947Z,6.77
2023-02-01T18:11:15.936Z,13.70
2023-02-01T18:13:39.570Z,7.30
2023-02-01T18:16:04.611Z,7.67
2023-02-01T18:18:29.023Z,10.07
2023-02-01T18:20:52.863Z,7.60
2023-02-01T18:23:20.671Z,5.40
2023-02-01T18:25:44.256Z,6.50
2023-02-01T18:28:09.372Z,11.23
2023-02-01T18:30:35.729Z,6.70
2023-02-01T18:32:59.742Z,10.40
2023-02-01T18:35:26.538Z,10.10
2023-02-01T18:37:51.822Z,12.17
2023-02-01T18:40:18.303Z,14.37
2023-02-01T18:42:41.957Z,7.70
2023-02-01T18:45:10.629Z,7.17
2023-02-01T18:47:34.259Z,12.10
2023-02-01T18:49:57.832Z,6.30
2023-02-01T18:52:21.483Z,11.60
2023-02-01T18:54:58.905Z,12.50
2023-02-01T18:57:23.934Z,11.43
2023-02-01T18:59:47.609Z,10.87
2023-02-01T19:02:14.967Z,12.97
2023-02-01T19:04:38.586Z,16.00
2023-02-01T19:07:02.250Z,9.47
2023-02-01T19:09:25.954Z,12.30
2023-02-01T19:11:49.635Z,9.30
2023-02-01T19:14:13.306Z,14.77
2023-02-01T19:16:39.799Z,10.00
2023-02-01T19:19:04.880Z,11.17
2023-02-01T19:21:28.543Z,12.87
2023-02-01T19:23:52.111Z,14.33
2023-02-01T19:26:18.438Z,13.70
2023-02-01T19:28:44.732Z,11.97
2023-02-01T19:31:10.051Z,9.43
2023-02-01T19:33:33.715Z,14.23
2023-02-01T19:36:01.411Z,14.67
2023-02-01T19:38:25.070Z,16.30
2023-02-01T19:40:50.708Z,14.67
2023-02-01T19:43:14.299Z,13.23
2023-02-01T19:45:37.970Z,10.73
2023-02-01T19:48:03.339Z,11.43
2023-02-01T19:50:27.097Z,14.37
2023-02-01T19:52:52.136Z,12.47
2023-02-01T19:55:16.075Z,20.03
2023-02-01T19:57:39.812Z,17.53
2023-02-01T20:00:03.920Z,14.67
2023-02-01T20:02:28.693Z,19.43
2023-02-01T20:04:52.416Z,13.57
2023-02-01T20:07:15.990Z,13.40
2023-02-01T20:09:42.259Z,18.57
2023-02-01T20:12:07.049Z,12.97
2023-02-01T20:14:31.153Z,22.30
2023-02-01T20:16:54.739Z,15.97
2023-02-01T20:19:18.753Z,8.87
2023-02-01T20:21:42.992Z,13.47
2023-02-01T20:24:08.045Z,12.23
2023-02-01T20:26:34.581Z,13.40
2023-02-01T20:28:58.332Z,14.27
2023-02-01T20:31:21.992Z,12.20
2023-02-01T20:33:45.664Z,14.97
2023-02-01T20:36:10.543Z,10.93
2023-02-01T20:38:34.303Z,13.23
2023-02-01T20:41:04.391Z,12.73
2023-02-01T20:43:29.468Z,10.70
2023-02-01T20:45:53.076Z,14.77
2023-02-01T20:48:16.784Z,15.80
2023-02-01T20:50:40.684Z,10.63
2023-02-01T20:53:06.024Z,19.63
2023-02-01T20:55:29.686Z,6.50
2023-02-01T20:57:54.433Z,9.87
2023-02-01T21:00:22.540Z,16.37
2023-02-01T21:02:46.227Z,14.17
2023-02-01T21:05:11.141Z,11.23
2023-02-01T21:07:34.905Z,12.60
2023-02-01T21:09:58.509Z,11.73
2023-02-01T21:12:22.172Z,17.90
2023-02-01T21:14:45.772Z,19.17
2023-02-01T21:17:10.830Z,14.67
2023-02-01T21:19:43.080Z,13.93
2023-02-01T21:22:06.909Z,17.70
2023-02-01T21:24:30.514Z,17.73
2023-02-01T21:26:54.228Z,11.03
2023-02-01T21:29:18.155Z,13.83
2023-02-01T21:31:43.211Z,14.40
2023-02-01T21:34:09.230Z,8.87
2023-02-01T21:36:35.866Z,13.57
2023-02-01T21:39:03.704Z,9.53
2023-02-01T21:41:44.435Z,20.87
2023-02-01T21:44:08.331Z,13.20
2023-02-01T21:46:32.043Z,11.03
2023-02-01T21:49:04.345Z,15.80
2023-02-01T21:51:32.180Z,14.83
2023-02-01T21:53:56.244Z,13.20
2023-02-01T21:56:20.009Z,15.43
2023-02-01T21:58:43.621Z,14.27
2023-02-01T22:01:07.282Z,15.80
2023-02-01T22:03:30.990Z,16.47
2023-02-01T22:05:54.709Z,14.53
2023-02-01T22:08:20.401Z,7.80
2023-02-01T22:10:44.161Z,15.03
2023-02-01T22:13:07.851Z,15.30
2023-02-01T22:15:31.557Z,14.10
2023-02-01T22:17:55.182Z,20.23
2023-02-01T22:20:19.570Z,14.83
2023-02-01T22:22:43.260Z,16.33
2023-02-01T22:25:10.262Z,11.73
2023-02-01T22:28:30.486Z,13.27
2023-02-01T22:30:18.126Z,20.10
2023-02-01T22:32:41.780Z,10.93
2023-02-01T22:35:05.971Z,12.80
2023-02-01T22:37:29.547Z,14.37
2023-02-01T22:39:55.085Z,15.10
2023-02-01T22:42:20.063Z,14.93
2023-02-01T22:44:45.436Z,9.70
2023-02-01T22:47:09.582Z,13.83
2023-02-01T22:49:33.333Z,19.83
2023-02-01T22:51:59.215Z,13.60
2023-02-01T22:54:23.395Z,13.63
2023-02-01T22:56:47.157Z,19.87
2023-02-01T22:59:15.132Z,15.63
2023-02-01T23:01:38.744Z,17.47
2023-02-01T23:04:04.592Z,11.57
2023-02-01T23:06:28.940Z,12.73
2023-02-01T23:08:56.863Z,12.20
2023-02-01T23:11:20.445Z,10.40
2023-02-01T23:13:44.077Z,12.07
2023-02-01T23:16:11.292Z,8.57
2023-02-01T23:18:35.007Z,16.37
2023-02-01T23:20:58.605Z,10.63
2023-02-01T23:23:22.485Z,19.17
2023-02-01T23:25:51.970Z,13.00
2023-02-01T23:28:16.433Z,17.67
2023-02-01T23:30:40.036Z,16.27
2023-02-01T23:33:07.113Z,14.90
2023-02-01T23:35:30.744Z,19.57
2023-02-01T23:37:54.417Z,21.67
2023-02-01T23:40:18.247Z,19.50
2023-02-01T23:43:02.048Z,18.70
2023-02-01T23:45:26.021Z,21.17
2023-02-01T23:47:49.735Z,19.77
2023-02-01T23:50:14.749Z,22.87
2023-02-01T23:52:38.336Z,14.27
2023-02-01T23:55:01.974Z,17.70
2023-02-01T23:57:25.660Z,28.33
2023-02-01T23:59:49.291Z,20.77
